createdAt,value
2019-05-28T00:01:45.159Z,11.07
2019-05-28T00:04:10.937Z,17.13
2019-05-28T00:06:36.739Z,13.40
2019-05-28T00:09:05.508Z,12.33
2019-05-28T00:11:31.309Z,13.77
2019-05-28T00:13:57.092Z,12.20
2019-05-28T00:16:22.892Z,10.97
2019-05-28T00:18:50.823Z,11.70
2019-05-28T00:21:16.622Z,9.63
2019-05-28T00:23:42.412Z,10.57
2019-05-28T00:26:08.203Z,10.00
2019-05-28T00:28:33.981Z,11.43
2019-05-28T00:30:59.769Z,10.57
2019-05-28T00:33:25.560Z,18.57
2019-05-28T00:35:51.340Z,16.33
2019-05-28T00:38:17.144Z,13.07
2019-05-28T00:40:42.936Z,14.20
2019-05-28T00:43:08.726Z,13.67
2019-05-28T00:45:34.504Z,9.37
2019-05-28T00:48:00.308Z,11.67
2019-05-28T00:50:26.079Z,11.67
2019-05-28T00:52:51.968Z,9.57
2019-05-28T00:55:17.840Z,9.37
2019-05-28T00:57:44.833Z,9.17
2019-05-28T01:00:11.304Z,9.97
2019-05-28T01:02:37.075Z,14.20
2019-05-28T01:05:04.591Z,12.60
2019-05-28T01:07:30.411Z,9.77
2019-05-28T01:09:56.200Z,14.67
2019-05-28T01:12:22.046Z,11.57
2019-05-28T01:14:47.842Z,10.57
2019-05-28T01:17:13.663Z,11.10
2019-05-28T01:19:39.445Z,10.90
2019-05-28T01:22:05.239Z,11.43
2019-05-28T01:24:31.049Z,11.80
2019-05-28T01:26:56.835Z,11.93
2019-05-28T01:29:22.636Z,9.67
2019-05-28T01:31:48.423Z,12.13
2019-05-28T01:35:09.903Z,8.63
2019-05-28T01:37:35.722Z,11.57
2019-05-28T01:40:04.213Z,9.30
2019-05-28T01:42:30.024Z,10.53
2019-05-28T01:44:55.839Z,11.30
2019-05-28T01:47:21.620Z,10.43
2019-05-28T01:49:47.427Z,9.83
2019-05-28T01:52:13.210Z,9.13
2019-05-28T01:54:39.009Z,9.20
2019-05-28T01:57:04.799Z,10.07
2019-05-28T01:59:30.599Z,8.67
2019-05-28T02:01:56.383Z,10.53
2019-05-28T02:04:22.188Z,7.07
2019-05-28T02:06:47.994Z,8.77
2019-05-28T02:09:13.790Z,11.80
2019-05-28T02:11:39.594Z,12.57
2019-05-28T02:14:05.417Z,10.67
2019-05-28T02:16:31.253Z,7.63
2019-05-28T02:18:57.126Z,11.03
2019-05-28T02:21:22.936Z,12.37
2019-05-28T02:23:48.770Z,9.93
2019-05-28T02:26:14.553Z,10.33
2019-05-28T02:28:40.351Z,10.40
2019-05-28T02:31:06.148Z,8.73
2019-05-28T02:33:31.957Z,11.47
2019-05-28T02:35:57.772Z,10.90
2019-05-28T02:38:23.550Z,10.67
2019-05-28T02:40:49.357Z,9.73
2019-05-28T02:43:15.166Z,11.13
2019-05-28T02:45:40.998Z,10.70
2019-05-28T02:48:06.888Z,9.67
2019-05-28T02:50:54.400Z,6.77
2019-05-28T02:53:20.492Z,8.33
2019-05-28T02:55:46.707Z,11.90
2019-05-28T02:58:13.627Z,8.60
2019-05-28T03:00:41.531Z,11.03
2019-05-28T03:03:09.444Z,8.33
2019-05-28T03:05:36.056Z,8.63
2019-05-28T03:08:02.574Z,9.33
2019-05-28T03:10:59.852Z,7.13
2019-05-28T03:13:04.280Z,10.50
2019-05-28T03:15:32.674Z,6.70
2019-05-28T03:17:58.593Z,9.40
2019-05-28T03:20:24.587Z,9.93
2019-05-28T03:22:50.770Z,7.13
2019-05-28T03:25:17.545Z,8.27
2019-05-28T03:27:43.360Z,8.33
2019-05-28T03:30:09.798Z,6.67
2019-05-28T03:32:35.687Z,7.40
2019-05-28T03:35:02.835Z,11.07
2019-05-28T03:37:29.229Z,8.60
2019-05-28T03:39:56.427Z,5.87
2019-05-28T03:42:22.234Z,10.50
2019-05-28T03:44:48.022Z,10.93
2019-05-28T03:47:13.830Z,6.13
2019-05-28T03:49:39.612Z,7.80
2019-05-28T03:52:05.411Z,10.33
2019-05-28T03:54:31.194Z,8.97
2019-05-28T03:56:56.993Z,9.07
2019-05-28T03:59:22.773Z,4.43
2019-05-28T04:01:48.581Z,13.53
2019-05-28T04:04:14.367Z,10.27
2019-05-28T04:06:40.179Z,9.30
2019-05-28T04:09:06.861Z,6.67
2019-05-28T04:11:44.304Z,4.87
2019-05-28T04:14:01.100Z,6.53
2019-05-28T04:16:26.900Z,7.40
2019-05-28T04:18:52.689Z,9.23
2019-05-28T04:21:18.518Z,9.00
2019-05-28T04:23:44.330Z,12.27
2019-05-28T04:26:10.118Z,10.13
2019-05-28T04:28:36.018Z,4.20
2019-05-28T04:31:01.798Z,10.97
2019-05-28T04:33:27.602Z,8.00
2019-05-28T04:35:53.410Z,7.80
2019-05-28T04:38:19.236Z,7.53
2019-05-28T04:40:45.028Z,8.50
2019-05-28T04:43:10.844Z,6.10
2019-05-28T04:45:36.655Z,4.73
2019-05-28T04:48:02.667Z,5.30
2019-05-28T04:50:28.472Z,8.97
2019-05-28T04:52:54.295Z,6.13
2019-05-28T04:55:20.107Z,5.93
2019-05-28T04:57:45.904Z,7.07
2019-05-28T05:00:11.886Z,7.10
2019-05-28T05:02:37.672Z,7.13
2019-05-28T05:05:05.971Z,7.93
2019-05-28T05:07:31.770Z,9.10
2019-05-28T05:09:57.572Z,9.83
2019-05-28T05:12:23.350Z,5.47
2019-05-28T05:14:49.184Z,6.23
2019-05-28T05:17:14.961Z,10.50
2019-05-28T05:19:40.794Z,7.60
2019-05-28T05:22:06.578Z,7.30
2019-05-28T05:24:32.418Z,5.00
2019-05-28T05:26:58.224Z,5.23
2019-05-28T05:29:24.020Z,6.70
2019-05-28T05:31:49.825Z,7.40
2019-05-28T05:34:15.641Z,6.93
2019-05-28T05:36:41.433Z,4.97
2019-05-28T05:39:07.335Z,6.33
2019-05-28T05:41:33.129Z,5.97
2019-05-28T05:43:58.951Z,8.07
2019-05-28T05:46:24.734Z,6.10
2019-05-28T05:48:50.539Z,7.67
2019-05-28T05:51:16.330Z,7.03
2019-05-28T05:53:42.132Z,5.53
2019-05-28T05:56:08.052Z,5.60
2019-05-28T05:58:33.854Z,5.77
2019-05-28T06:00:59.638Z,6.80
2019-05-28T06:03:39.943Z,5.10
2019-05-28T06:05:53.136Z,5.70
2019-05-28T06:08:18.926Z,4.93
2019-05-28T06:10:44.725Z,8.63
2019-05-28T06:13:10.532Z,7.33
2019-05-28T06:15:36.348Z,5.60
2019-05-28T06:18:02.276Z,6.30
2019-05-28T06:20:28.172Z,8.10
2019-05-28T06:22:53.973Z,6.03
2019-05-28T06:25:19.780Z,6.47
2019-05-28T06:27:45.597Z,7.67
2019-05-28T06:30:11.496Z,5.83
2019-05-28T06:32:38.546Z,5.93
2019-05-28T06:35:04.618Z,4.57
2019-05-28T06:37:30.403Z,3.60
2019-05-28T06:39:56.231Z,6.10
2019-05-28T06:42:22.049Z,4.33
2019-05-28T06:44:47.843Z,4.07
2019-05-28T06:47:13.783Z,6.30
2019-05-28T06:49:39.575Z,4.50
2019-05-28T06:52:06.125Z,6.07
2019-05-28T06:54:31.927Z,7.37
2019-05-28T06:56:57.723Z,5.00
2019-05-28T06:59:23.513Z,6.93
2019-05-28T07:01:49.326Z,4.23
2019-05-28T07:04:31.409Z,4.63
2019-05-28T07:06:42.835Z,3.17
2019-05-28T07:09:08.671Z,5.13
2019-05-28T07:11:34.539Z,3.80
2019-05-28T07:14:00.315Z,5.80
2019-05-28T07:16:26.126Z,4.93
2019-05-28T07:18:51.914Z,3.33
2019-05-28T07:21:17.710Z,5.60
2019-05-28T07:23:43.783Z,5.00
2019-05-28T07:26:09.657Z,5.53
2019-05-28T07:28:35.447Z,2.77
2019-05-28T07:31:01.263Z,4.57
2019-05-28T07:33:27.059Z,3.50
2019-05-28T07:35:52.862Z,5.10
2019-05-28T07:38:18.669Z,5.27
2019-05-28T07:40:44.489Z,5.57
2019-05-28T07:43:10.314Z,3.07
2019-05-28T07:45:36.098Z,3.27
2019-05-28T07:48:03.853Z,8.57
2019-05-28T07:50:29.651Z,4.03
2019-05-28T07:52:55.449Z,5.87
2019-05-28T07:55:21.248Z,4.23
2019-05-28T07:57:47.038Z,6.63
2019-05-28T08:00:13.243Z,3.67
2019-05-28T08:02:39.169Z,3.33
2019-05-28T08:05:05.351Z,4.83
2019-05-28T08:07:31.151Z,4.03
2019-05-28T08:09:56.958Z,6.57
2019-05-28T08:12:22.762Z,3.93
2019-05-28T08:14:48.547Z,6.90
2019-05-28T08:17:14.467Z,6.17
2019-05-28T08:19:40.258Z,5.23
2019-05-28T08:22:06.154Z,3.97
2019-05-28T08:24:31.965Z,4.70
2019-05-28T08:26:57.751Z,6.07
2019-05-28T08:29:23.553Z,6.23
2019-05-28T08:31:49.353Z,4.73
2019-05-28T08:34:19.165Z,4.83
2019-05-28T08:36:42.941Z,6.83
2019-05-28T08:39:08.950Z,4.90
2019-05-28T08:41:34.950Z,4.43
2019-05-28T08:44:00.777Z,3.67
2019-05-28T08:46:26.572Z,4.43
2019-05-28T08:48:52.379Z,4.20
2019-05-28T08:51:18.166Z,4.43
2019-05-28T08:53:43.977Z,7.53
2019-05-28T08:56:09.770Z,6.30
2019-05-28T08:58:35.670Z,8.33
2019-05-28T09:01:01.484Z,12.97
2019-05-28T09:03:27.286Z,10.53
2019-05-28T09:05:53.085Z,6.20
2019-05-28T09:08:19.016Z,9.13
2019-05-28T09:10:44.834Z,3.37
2019-05-28T09:13:10.622Z,3.00
2019-05-28T09:15:36.455Z,5.83
2019-05-28T09:18:02.603Z,3.83
2019-05-28T09:20:28.543Z,4.00
2019-05-28T09:22:54.671Z,3.30
2019-05-28T09:25:20.831Z,5.17
2019-05-28T09:27:50.020Z,7.10
2019-05-28T09:30:16.125Z,5.37
2019-05-28T09:32:41.941Z,2.70
2019-05-28T09:35:08.134Z,6.40
2019-05-28T09:37:33.997Z,5.87
2019-05-28T09:39:59.995Z,5.50
2019-05-28T09:42:25.792Z,3.53
2019-05-28T09:44:51.594Z,2.43
2019-05-28T09:47:17.402Z,9.23
2019-05-28T09:49:43.198Z,4.63
2019-05-28T09:52:09.093Z,3.70
2019-05-28T09:54:34.900Z,2.83
2019-05-28T09:57:00.689Z,3.40
2019-05-28T09:59:40.636Z,14.33
2019-05-28T10:01:54.430Z,5.83
2019-05-28T10:04:20.236Z,6.00
2019-05-28T10:06:46.033Z,5.57
2019-05-28T10:09:11.852Z,5.57
2019-05-28T10:11:37.729Z,5.93
2019-05-28T10:14:03.495Z,2.43
2019-05-28T10:16:29.294Z,3.20
2019-05-28T10:18:55.086Z,2.77
2019-05-28T10:21:20.884Z,3.23
2019-05-28T10:23:46.685Z,3.33
2019-05-28T10:26:12.487Z,4.00
2019-05-28T10:28:38.285Z,3.27
2019-05-28T10:31:04.106Z,5.87
2019-05-28T10:33:29.953Z,2.17
2019-05-28T10:35:55.768Z,5.50
2019-05-28T10:38:21.560Z,4.70
2019-05-28T10:40:47.377Z,4.07
2019-05-28T10:43:13.185Z,4.20
2019-05-28T10:45:39.053Z,6.10
2019-05-28T10:48:04.808Z,4.33
2019-05-28T10:50:30.625Z,4.10
2019-05-28T10:52:56.512Z,4.20
2019-05-28T10:55:22.310Z,4.43
2019-05-28T10:57:48.106Z,2.87
2019-05-28T11:00:14.324Z,2.67
2019-05-28T11:02:40.134Z,3.23
2019-05-28T11:05:06.818Z,3.97
2019-05-28T11:07:32.623Z,3.13
2019-05-28T11:09:58.416Z,3.93
2019-05-28T11:12:24.218Z,2.57
2019-05-28T11:14:50.019Z,3.27
2019-05-28T11:17:15.837Z,4.40
2019-05-28T11:19:41.658Z,3.23
2019-05-28T11:22:07.566Z,2.90
2019-05-28T11:24:33.370Z,3.40
2019-05-28T11:26:59.179Z,2.90
2019-05-28T11:29:24.978Z,3.17
2019-05-28T11:31:50.776Z,3.60
2019-05-28T11:34:16.558Z,2.50
2019-05-28T11:36:42.406Z,3.67
2019-05-28T11:39:08.818Z,5.47
2019-05-28T11:41:42.169Z,4.73
2019-05-28T11:44:02.438Z,3.93
2019-05-28T11:46:28.230Z,5.27
2019-05-28T11:48:54.022Z,7.57
2019-05-28T11:51:19.916Z,4.13
2019-05-28T11:53:45.711Z,3.70
2019-05-28T11:56:11.507Z,4.43
2019-05-28T11:58:37.303Z,7.43
2019-05-28T12:01:03.115Z,3.40
2019-05-28T12:03:28.907Z,5.13
2019-05-28T12:05:54.705Z,4.07
2019-05-28T12:08:20.507Z,4.53
2019-05-28T12:10:46.313Z,3.93
2019-05-28T12:13:12.124Z,6.13
2019-05-28T12:15:37.912Z,4.33
2019-05-28T12:18:03.723Z,3.60
2019-05-28T12:20:30.448Z,5.63
2019-05-28T12:23:10.286Z,3.20
2019-05-28T12:25:24.231Z,3.10
2019-05-28T12:27:50.024Z,4.10
2019-05-28T12:30:18.435Z,2.27
2019-05-28T12:32:44.114Z,3.60
2019-05-28T12:35:26.318Z,3.07
2019-05-28T12:37:48.217Z,4.60
2019-05-28T12:40:07.253Z,3.50
2019-05-28T12:42:33.373Z,4.87
2019-05-28T12:45:09.413Z,3.77
2019-05-28T12:47:26.949Z,3.73
2019-05-28T12:49:52.734Z,3.00
2019-05-28T12:52:18.548Z,2.10
2019-05-28T12:54:44.349Z,3.07
2019-05-28T12:57:10.138Z,5.30
2019-05-28T12:59:35.954Z,2.57
2019-05-28T13:02:01.751Z,5.23
2019-05-28T13:04:27.549Z,3.63
2019-05-28T13:06:53.334Z,3.57
2019-05-28T13:09:19.133Z,6.50
2019-05-28T13:11:44.945Z,4.67
2019-05-28T13:14:10.757Z,3.23
2019-05-28T13:16:36.540Z,3.13
2019-05-28T13:19:02.435Z,3.40
2019-05-28T13:21:28.239Z,4.00
2019-05-28T13:23:54.233Z,2.73
2019-05-28T13:26:20.046Z,4.67
2019-05-28T13:28:45.840Z,3.60
2019-05-28T13:31:11.641Z,5.10
2019-05-28T13:33:37.429Z,4.57
2019-05-28T13:36:03.354Z,2.90
2019-05-28T13:38:29.168Z,4.63
2019-05-28T13:40:54.964Z,3.67
2019-05-28T13:43:20.771Z,4.07
2019-05-28T13:45:46.591Z,2.67
2019-05-28T13:48:12.408Z,3.00
2019-05-28T13:50:38.310Z,4.37
2019-05-28T13:53:04.119Z,3.00
2019-05-28T13:55:29.938Z,4.60
2019-05-28T13:57:55.734Z,3.27
2019-05-28T14:00:21.829Z,2.77
2019-05-28T14:02:47.614Z,2.83
2019-05-28T14:05:14.506Z,3.67
2019-05-28T14:07:40.314Z,4.30
2019-05-28T14:10:06.203Z,2.03
2019-05-28T14:12:32.001Z,2.93
2019-05-28T14:14:57.809Z,3.00
2019-05-28T14:17:23.611Z,3.23
2019-05-28T14:19:49.427Z,2.97
2019-05-28T14:22:30.862Z,2.43
2019-05-28T14:24:43.673Z,1.70
2019-05-28T14:27:09.493Z,1.70
2019-05-28T14:29:35.278Z,3.63
2019-05-28T14:32:01.085Z,3.53
2019-05-28T14:34:26.975Z,2.43
2019-05-28T14:36:53.005Z,3.27
2019-05-28T14:39:18.759Z,3.00
2019-05-28T14:41:44.553Z,2.40
2019-05-28T14:44:10.338Z,1.93
2019-05-28T14:46:36.127Z,5.77
2019-05-28T14:49:01.937Z,3.63
2019-05-28T14:51:27.722Z,3.97
2019-05-28T14:53:53.538Z,2.07
2019-05-28T14:56:19.324Z,2.17
2019-05-28T14:58:45.118Z,1.50
2019-05-28T15:01:10.912Z,2.47
2019-05-28T15:03:36.711Z,2.77
2019-05-28T15:06:02.720Z,1.70
2019-05-28T15:08:28.798Z,2.37
2019-05-28T15:10:54.573Z,3.03
2019-05-28T15:13:20.370Z,2.13
2019-05-28T15:15:46.155Z,3.47
2019-05-28T15:18:11.978Z,2.60
2019-05-28T15:20:37.779Z,4.40
2019-05-28T15:23:03.622Z,5.43
2019-05-28T15:25:29.411Z,2.63
2019-05-28T15:27:55.241Z,3.70
2019-05-28T15:30:21.419Z,5.17
2019-05-28T15:32:47.239Z,2.37
2019-05-28T15:35:13.223Z,2.90
2019-05-28T15:37:39.055Z,4.17
2019-05-28T15:40:05.832Z,2.67
2019-05-28T15:42:31.671Z,2.13
2019-05-28T15:44:57.465Z,1.40
2019-05-28T15:47:23.260Z,2.17
2019-05-28T15:49:49.067Z,3.03
2019-05-28T15:52:16.877Z,1.80
2019-05-28T15:54:42.682Z,2.63
2019-05-28T15:57:08.497Z,2.90
2019-05-28T15:59:34.295Z,3.60
2019-05-28T16:02:00.087Z,1.80
2019-05-28T16:04:25.883Z,1.60
2019-05-28T16:06:51.679Z,2.67
2019-05-28T16:09:17.482Z,1.63
2019-05-28T16:11:43.277Z,2.50
2019-05-28T16:14:09.065Z,2.40
2019-05-28T16:16:34.882Z,2.20
2019-05-28T16:19:00.685Z,1.63
2019-05-28T16:21:26.485Z,3.17
2019-05-28T16:23:52.296Z,2.17
2019-05-28T16:26:18.082Z,2.87
2019-05-28T16:28:43.895Z,1.27
2019-05-28T16:31:12.736Z,1.83
2019-05-28T16:33:38.456Z,3.90
2019-05-28T16:36:04.261Z,2.33
2019-05-28T16:38:30.090Z,1.60
2019-05-28T16:40:55.885Z,1.50
2019-05-28T16:43:21.688Z,1.50
2019-05-28T16:45:47.491Z,2.40
2019-05-28T16:48:13.298Z,2.07
2019-05-28T16:50:39.109Z,2.57
2019-05-28T16:53:05.216Z,2.87
2019-05-28T16:55:31.051Z,3.43
2019-05-28T16:57:56.824Z,4.80
2019-05-28T17:00:22.747Z,4.47
2019-05-28T17:02:48.521Z,1.47
2019-05-28T17:05:14.920Z,1.33
2019-05-28T17:07:40.717Z,1.33
2019-05-28T17:10:06.743Z,3.67
2019-05-28T17:12:32.541Z,4.13
2019-05-28T17:14:58.348Z,2.37
2019-05-28T17:17:24.161Z,1.77
2019-05-28T17:19:49.981Z,2.60
2019-05-28T17:22:15.768Z,2.10
2019-05-28T17:24:41.566Z,1.10
2019-05-28T17:27:07.387Z,1.20
2019-05-28T17:29:33.169Z,1.30
2019-05-28T17:31:58.986Z,2.13
2019-05-28T17:34:24.791Z,2.33
2019-05-28T17:36:50.593Z,1.93
2019-05-28T17:39:16.378Z,2.60
2019-05-28T17:41:42.173Z,2.00
2019-05-28T17:44:07.963Z,2.83
2019-05-28T17:46:33.774Z,3.10
2019-05-28T17:48:59.554Z,1.43
2019-05-28T17:51:25.370Z,3.27
2019-05-28T17:53:51.179Z,2.87
2019-05-28T17:56:16.978Z,1.73
2019-05-28T17:58:42.770Z,1.23
2019-05-28T18:01:08.577Z,1.80
2019-05-28T18:03:35.333Z,3.20
2019-05-28T18:06:01.383Z,2.67
2019-05-28T18:08:29.335Z,2.80
2019-05-28T18:11:03.620Z,2.07
2019-05-28T18:13:22.730Z,2.83
2019-05-28T18:15:48.710Z,2.30
2019-05-28T18:18:14.966Z,2.37
2019-05-28T18:20:40.760Z,1.47
2019-05-28T18:23:06.571Z,3.37
2019-05-28T18:25:32.407Z,3.50
2019-05-28T18:27:58.824Z,2.10
2019-05-28T18:30:24.812Z,2.87
2019-05-28T18:32:50.719Z,1.63
2019-05-28T18:35:18.707Z,2.27
2019-05-28T18:38:03.425Z,5.33
2019-05-28T18:40:26.721Z,1.47
2019-05-28T18:42:52.646Z,2.20
2019-05-28T18:45:18.886Z,2.73
2019-05-28T18:47:45.097Z,3.07
2019-05-28T18:50:11.955Z,2.87
2019-05-28T18:52:37.756Z,3.63
2019-05-28T18:55:05.617Z,3.83
2019-05-28T18:57:31.557Z,3.23
2019-05-28T18:59:57.346Z,2.63
2019-05-28T19:02:23.153Z,3.33
2019-05-28T19:04:48.944Z,2.53
2019-05-28T19:07:14.758Z,3.37
2019-05-28T19:09:40.979Z,2.90
2019-05-28T19:12:06.768Z,2.40
2019-05-28T19:14:32.572Z,3.57
2019-05-28T19:16:58.375Z,3.90
2019-05-28T19:19:24.178Z,1.83
2019-05-28T19:21:49.985Z,2.80
2019-05-28T19:24:16.559Z,1.73
2019-05-28T19:26:42.580Z,1.97
2019-05-28T19:29:08.417Z,1.30
2019-05-28T19:31:34.210Z,2.80
2019-05-28T19:34:00.026Z,3.83
2019-05-28T19:36:26.539Z,2.63
2019-05-28T19:38:53.043Z,2.47
2019-05-28T19:41:18.905Z,2.60
2019-05-28T19:43:44.711Z,4.57
2019-05-28T19:46:10.839Z,2.87
2019-05-28T19:48:36.685Z,1.30
2019-05-28T19:51:02.702Z,3.90
2019-05-28T19:53:28.513Z,5.07
2019-05-28T19:55:54.360Z,2.10
2019-05-28T19:58:20.336Z,2.73
2019-05-28T20:00:46.171Z,3.07
2019-05-28T20:03:12.344Z,2.47
2019-05-28T20:05:38.332Z,2.63
2019-05-28T20:08:04.235Z,2.40
2019-05-28T20:10:30.030Z,1.77
2019-05-28T20:12:55.839Z,4.53
2019-05-28T20:15:23.737Z,3.10
2019-05-28T20:17:50.306Z,3.27
2019-05-28T20:20:18.018Z,4.03
2019-05-28T20:22:43.828Z,1.67
2019-05-28T20:25:09.864Z,1.90
2019-05-28T20:27:35.657Z,1.93
2019-05-28T20:30:03.026Z,1.83
2019-05-28T20:32:28.965Z,3.17
2019-05-28T20:34:54.790Z,3.93
2019-05-28T20:37:20.603Z,3.47
2019-05-28T20:39:46.416Z,2.90
2019-05-28T20:42:26.083Z,4.27
2019-05-28T20:44:39.929Z,2.53
2019-05-28T20:47:06.958Z,4.60
2019-05-28T20:49:32.831Z,5.33
2019-05-28T20:51:58.619Z,3.30
2019-05-28T20:54:24.412Z,2.13
2019-05-28T20:56:51.942Z,3.73
2019-05-28T20:59:17.961Z,2.13
2019-05-28T21:01:43.758Z,3.43
2019-05-28T21:04:09.582Z,3.03
2019-05-28T21:06:35.375Z,3.93
2019-05-28T21:09:01.162Z,3.60
2019-05-28T21:11:26.961Z,2.90
2019-05-28T21:13:52.746Z,3.83
2019-05-28T21:16:18.542Z,3.67
2019-05-28T21:18:44.338Z,3.23
2019-05-28T21:21:10.180Z,1.50
2019-05-28T21:23:35.976Z,1.80
2019-05-28T21:26:01.802Z,2.93
2019-05-28T21:28:27.627Z,3.00
2019-05-28T21:30:54.602Z,5.33
2019-05-28T21:33:20.494Z,2.27
2019-05-28T21:35:46.302Z,2.97
2019-05-28T21:38:12.097Z,3.13
2019-05-28T21:40:37.892Z,4.27
2019-05-28T21:43:09.380Z,2.87
2019-05-28T21:45:31.385Z,4.00
2019-05-28T21:47:58.388Z,4.53
2019-05-28T21:50:24.412Z,3.57
2019-05-28T21:52:50.210Z,3.13
2019-05-28T21:55:16.094Z,5.47
2019-05-28T21:57:41.913Z,5.27
2019-05-28T22:00:19.146Z,3.10
2019-05-28T22:02:44.968Z,3.53
2019-05-28T22:05:12.655Z,3.37
2019-05-28T22:07:38.470Z,2.87
2019-05-28T22:10:05.357Z,3.83
2019-05-28T22:12:31.159Z,4.50
2019-05-28T22:14:57.965Z,3.30
2019-05-28T22:17:23.771Z,5.50
2019-05-28T22:19:49.579Z,2.30
2019-05-28T22:22:15.375Z,3.20
2019-05-28T22:24:41.174Z,3.33
2019-05-28T22:27:06.974Z,3.50
2019-05-28T22:29:32.780Z,5.77
2019-05-28T22:31:58.768Z,5.67
2019-05-28T22:34:24.575Z,9.57
2019-05-28T22:36:50.468Z,4.90
2019-05-28T22:39:16.271Z,4.17
2019-05-28T22:41:42.088Z,3.13
2019-05-28T22:44:08.079Z,4.57
2019-05-28T22:46:33.997Z,3.77
2019-05-28T22:48:59.795Z,3.33
2019-05-28T22:51:25.588Z,2.97
2019-05-28T22:53:51.391Z,3.43
2019-05-28T22:56:17.179Z,3.53
2019-05-28T22:58:43.007Z,3.67
2019-05-28T23:01:08.802Z,4.70
2019-05-28T23:03:34.609Z,3.60
2019-05-28T23:06:01.121Z,3.20
2019-05-28T23:08:26.900Z,7.10
2019-05-28T23:10:52.707Z,3.73
2019-05-28T23:13:18.538Z,3.70
2019-05-28T23:15:44.352Z,3.97
2019-05-28T23:18:11.020Z,2.73
2019-05-28T23:20:36.867Z,3.87
2019-05-28T23:23:03.235Z,7.03
2019-05-28T23:25:29.127Z,3.03
2019-05-28T23:27:54.911Z,5.00
2019-05-28T23:30:25.134Z,4.10
2019-05-28T23:32:48.714Z,3.80
2019-05-28T23:35:14.614Z,4.00
2019-05-28T23:37:40.401Z,4.70
2019-05-28T23:40:07.144Z,2.70
2019-05-28T23:42:32.918Z,3.80
2019-05-28T23:44:58.746Z,4.30
2019-05-28T23:47:24.554Z,4.60
2019-05-28T23:49:50.374Z,2.90
2019-05-28T23:52:17.042Z,5.27
2019-05-28T23:54:42.861Z,6.50
2019-05-28T23:57:09.820Z,4.93
2019-05-28T23:59:35.663Z,4.33
